sensor_id;sensor_type;location;lat;lon;timestamp;pressure;altitude;pressure_sealevel;temperature
18474;BMP180;30265;52.408;13.500;2023-03-25T00:00:56;100676.00;;;13.00
18474;BMP180;30265;52.408;13.500;2023-03-25T00:11:18;100680.00;;;13.10
18474;BMP180;30265;52.408;13.500;2023-03-25T00:21:41;100653.00;;;13.00
18474;BMP180;30265;52.408;13.500;2023-03-25T00:32:04;100656.00;;;13.20
18474;BMP180;30265;52.408;13.500;2023-03-25T00:42:27;100662.00;;;13.20
18474;BMP180;30265;52.408;13.500;2023-03-25T00:52:49;100664.00;;;13.30
18474;BMP180;30265;52.408;13.500;2023-03-25T01:03:14;100660.00;;;13.50
18474;BMP180;30265;52.408;13.500;2023-03-25T01:13:36;100666.00;;;13.40
18474;BMP180;30265;52.408;13.500;2023-03-25T01:23:59;100659.00;;;13.20
18474;BMP180;30265;52.408;13.500;2023-03-25T01:34:21;100628.00;;;13.30
18474;BMP180;30265;52.408;13.500;2023-03-25T01:45:20;100620.00;;;13.20
18474;BMP180;30265;52.408;13.500;2023-03-25T01:55:43;100635.00;;;13.00
18474;BMP180;30265;52.408;13.500;2023-03-25T02:06:13;100636.00;;;12.90
18474;BMP180;30265;52.408;13.500;2023-03-25T02:16:47;100612.00;;;13.10
18474;BMP180;30265;52.408;13.500;2023-03-25T02:27:15;100583.00;;;13.30
18474;BMP180;30265;52.408;13.500;2023-03-25T02:38:14;100578.00;;;13.40
18474;BMP180;30265;52.408;13.500;2023-03-25T02:48:49;100558.00;;;13.60
18474;BMP180;30265;52.408;13.500;2023-03-25T02:59:16;100544.00;;;13.70
18474;BMP180;30265;52.408;13.500;2023-03-25T03:09:43;100540.00;;;13.70
18474;BMP180;30265;52.408;13.500;2023-03-25T03:20:15;100543.00;;;13.70
18474;BMP180;30265;52.408;13.500;2023-03-25T03:30:43;100544.00;;;14.10
18474;BMP180;30265;52.408;13.500;2023-03-25T03:41:09;100554.00;;;14.40
18474;BMP180;30265;52.408;13.500;2023-03-25T03:51:35;100563.00;;;14.10
18474;BMP180;30265;52.408;13.500;2023-03-25T04:01:59;100545.00;;;13.90
18474;BMP180;30265;52.408;13.500;2023-03-25T04:12:25;100565.00;;;13.80
18474;BMP180;30265;52.408;13.500;2023-03-25T04:22:49;100571.00;;;13.80
18474;BMP180;30265;52.408;13.500;2023-03-25T04:33:11;100559.00;;;13.90
18474;BMP180;30265;52.408;13.500;2023-03-25T04:43:34;100565.00;;;14.00
18474;BMP180;30265;52.408;13.500;2023-03-25T04:53:58;100560.00;;;14.00
18474;BMP180;30265;52.408;13.500;2023-03-25T05:04:21;100545.00;;;13.80
18474;BMP180;30265;52.408;13.500;2023-03-25T05:14:44;100547.00;;;13.90
18474;BMP180;30265;52.408;13.500;2023-03-25T05:25:08;100534.00;;;14.00
18474;BMP180;30265;52.408;13.500;2023-03-25T05:35:30;100537.00;;;14.00
18474;BMP180;30265;52.408;13.500;2023-03-25T05:45:53;100544.00;;;14.10
18474;BMP180;30265;52.408;13.500;2023-03-25T05:56:15;100550.00;;;14.50
18474;BMP180;30265;52.408;13.500;2023-03-25T06:06:40;100567.00;;;14.20
18474;BMP180;30265;52.408;13.500;2023-03-25T06:17:02;100573.00;;;14.50
18474;BMP180;30265;52.408;13.500;2023-03-25T06:27:26;100580.00;;;14.60
18474;BMP180;30265;52.408;13.500;2023-03-25T06:37:48;100583.00;;;14.60
18474;BMP180;30265;52.408;13.500;2023-03-25T06:48:20;100574.00;;;14.90
18474;BMP180;30265;52.408;13.500;2023-03-25T06:58:42;100570.00;;;15.10
18474;BMP180;30265;52.408;13.500;2023-03-25T07:09:04;100569.00;;;14.80
18474;BMP180;30265;52.408;13.500;2023-03-25T07:19:26;100559.00;;;15.00
18474;BMP180;30265;52.408;13.500;2023-03-25T07:29:49;100568.00;;;15.60
18474;BMP180;30265;52.408;13.500;2023-03-25T07:40:12;100577.00;;;15.40
18474;BMP180;30265;52.408;13.500;2023-03-25T07:50:35;100573.00;;;16.00
18474;BMP180;30265;52.408;13.500;2023-03-25T08:00:56;100574.00;;;16.60
18474;BMP180;30265;52.408;13.500;2023-03-25T08:11:20;100566.00;;;16.40
18474;BMP180;30265;52.408;13.500;2023-03-25T08:21:42;100554.00;;;16.60
18474;BMP180;30265;52.408;13.500;2023-03-25T08:32:05;100563.00;;;16.70
18474;BMP180;30265;52.408;13.500;2023-03-25T08:42:26;100567.00;;;16.90
18474;BMP180;30265;52.408;13.500;2023-03-25T08:52:49;100545.00;;;16.90
18474;BMP180;30265;52.408;13.500;2023-03-25T09:03:12;100565.00;;;17.00
18474;BMP180;30265;52.408;13.500;2023-03-25T09:13:35;100548.00;;;16.70
18474;BMP180;30265;52.408;13.500;2023-03-25T09:23:57;100555.00;;;16.80
18474;BMP180;30265;52.408;13.500;2023-03-25T09:34:20;100559.00;;;16.80
18474;BMP180;30265;52.408;13.500;2023-03-25T09:44:51;100571.00;;;16.70
18474;BMP180;30265;52.408;13.500;2023-03-25T09:55:21;100573.00;;;17.00
18474;BMP180;30265;52.408;13.500;2023-03-25T10:05:56;100587.00;;;17.00
18474;BMP180;30265;52.408;13.500;2023-03-25T10:16:27;100511.00;;;18.30
18474;BMP180;30265;52.408;13.500;2023-03-25T10:26:55;100533.00;;;18.00
18474;BMP180;30265;52.408;13.500;2023-03-25T10:37:24;100518.00;;;18.50
18474;BMP180;30265;52.408;13.500;2023-03-25T10:47:48;100535.00;;;17.70
18474;BMP180;30265;52.408;13.500;2023-03-25T10:58:15;100515.00;;;18.40
18474;BMP180;30265;52.408;13.500;2023-03-25T11:08:55;100537.00;;;17.90
18474;BMP180;30265;52.408;13.500;2023-03-25T11:19:23;100510.00;;;18.60
18474;BMP180;30265;52.408;13.500;2023-03-25T11:29:50;100528.00;;;18.30
18474;BMP180;30265;52.408;13.500;2023-03-25T11:40:16;100503.00;;;18.70
18474;BMP180;30265;52.408;13.500;2023-03-25T11:50:44;100512.00;;;17.60
18474;BMP180;30265;52.408;13.500;2023-03-25T12:01:22;100501.00;;;18.20
18474;BMP180;30265;52.408;13.500;2023-03-25T12:11:49;100501.00;;;17.70
18474;BMP180;30265;52.408;13.500;2023-03-25T12:22:23;100461.00;;;18.50
18474;BMP180;30265;52.408;13.500;2023-03-25T12:32:52;100481.00;;;18.00
18474;BMP180;30265;52.408;13.500;2023-03-25T12:43:21;100506.00;;;16.20
18474;BMP180;30265;52.408;13.500;2023-03-25T12:53:55;100462.00;;;17.90
18474;BMP180;30265;52.408;13.500;2023-03-25T13:04:42;100421.00;;;18.60
18474;BMP180;30265;52.408;13.500;2023-03-25T13:15:10;100418.00;;;18.20
18474;BMP180;30265;52.408;13.500;2023-03-25T13:25:49;100404.00;;;18.50
18474;BMP180;30265;52.408;13.500;2023-03-25T13:36:16;100455.00;;;17.90
18474;BMP180;30265;52.408;13.500;2023-03-25T13:46:46;100519.00;;;15.40
18474;BMP180;30265;52.408;13.500;2023-03-25T13:57:28;100565.00;;;15.10
18474;BMP180;30265;52.408;13.500;2023-03-25T14:08:20;100566.00;;;13.70
18474;BMP180;30265;52.408;13.500;2023-03-25T14:18:47;100561.00;;;14.00
18474;BMP180;30265;52.408;13.500;2023-03-25T14:29:19;100546.00;;;14.30
18474;BMP180;30265;52.408;13.500;2023-03-25T14:39:42;100537.00;;;14.60
18474;BMP180;30265;52.408;13.500;2023-03-25T14:50:29;100510.00;;;15.50
18474;BMP180;30265;52.408;13.500;2023-03-25T15:00:53;100483.00;;;16.10
18474;BMP180;30265;52.408;13.500;2023-03-25T15:11:24;100452.00;;;16.90
18474;BMP180;30265;52.408;13.500;2023-03-25T15:22:06;100466.00;;;16.60
18474;BMP180;30265;52.408;13.500;2023-03-25T15:32:48;100455.00;;;16.90
18474;BMP180;30265;52.408;13.500;2023-03-25T15:43:39;100438.00;;;17.50
18474;BMP180;30265;52.408;13.500;2023-03-25T15:54:30;100452.00;;;16.80
18474;BMP180;30265;52.408;13.500;2023-03-25T16:04:52;100451.00;;;16.40
18474;BMP180;30265;52.408;13.500;2023-03-25T16:15:17;100466.00;;;16.20
18474;BMP180;30265;52.408;13.500;2023-03-25T16:25:41;100470.00;;;16.20
18474;BMP180;30265;52.408;13.500;2023-03-25T16:36:08;100531.00;;;15.40
18474;BMP180;30265;52.408;13.500;2023-03-25T16:46:30;100534.00;;;14.50
18474;BMP180;30265;52.408;13.500;2023-03-25T16:56:54;100518.00;;;14.80
18474;BMP180;30265;52.408;13.500;2023-03-25T17:07:17;100525.00;;;15.00
18474;BMP180;30265;52.408;13.500;2023-03-25T17:17:45;100522.00;;;14.70
18474;BMP180;30265;52.408;13.500;2023-03-25T17:28:24;100527.00;;;15.00
18474;BMP180;30265;52.408;13.500;2023-03-25T17:38:51;100531.00;;;15.00
18474;BMP180;30265;52.408;13.500;2023-03-25T17:49:16;100544.00;;;15.00
18474;BMP180;30265;52.408;13.500;2023-03-25T17:59:41;100537.00;;;14.90
18474;BMP180;30265;52.408;13.500;2023-03-25T18:10:09;100538.00;;;14.80
18474;BMP180;30265;52.408;13.500;2023-03-25T18:20:35;100541.00;;;14.80
18474;BMP180;30265;52.408;13.500;2023-03-25T18:30:57;100533.00;;;15.00
18474;BMP180;30265;52.408;13.500;2023-03-25T18:41:21;100531.00;;;15.10
18474;BMP180;30265;52.408;13.500;2023-03-25T18:51:43;100539.00;;;14.80
18474;BMP180;30265;52.408;13.500;2023-03-25T19:02:08;100543.00;;;14.50
18474;BMP180;30265;52.408;13.500;2023-03-25T19:12:30;100538.00;;;14.30
18474;BMP180;30265;52.408;13.500;2023-03-25T19:22:54;100546.00;;;14.50
18474;BMP180;30265;52.408;13.500;2023-03-25T19:33:16;100582.00;;;14.00
18474;BMP180;30265;52.408;13.500;2023-03-25T19:43:39;100591.00;;;13.30
18474;BMP180;30265;52.408;13.500;2023-03-25T19:54:01;100564.00;;;13.10
18474;BMP180;30265;52.408;13.500;2023-03-25T20:04:24;100578.00;;;13.00
18474;BMP180;30265;52.408;13.500;2023-03-25T20:14:47;100548.00;;;12.90
18474;BMP180;30265;52.408;13.500;2023-03-25T20:25:11;100540.00;;;12.90
18474;BMP180;30265;52.408;13.500;2023-03-25T20:35:33;100531.00;;;13.00
18474;BMP180;30265;52.408;13.500;2023-03-25T20:45:57;100549.00;;;13.10
18474;BMP180;30265;52.408;13.500;2023-03-25T20:56:21;100535.00;;;13.10
18474;BMP180;30265;52.408;13.500;2023-03-25T21:06:47;100540.00;;;12.90
18474;BMP180;30265;52.408;13.500;2023-03-25T21:17:09;100534.00;;;12.80
18474;BMP180;30265;52.408;13.500;2023-03-25T21:27:33;100543.00;;;12.80
18474;BMP180;30265;52.408;13.500;2023-03-25T21:37:59;100536.00;;;12.90
18474;BMP180;30265;52.408;13.500;2023-03-25T21:48:25;100550.00;;;12.80
18474;BMP180;30265;52.408;13.500;2023-03-25T21:58:49;100542.00;;;12.90
18474;BMP180;30265;52.408;13.500;2023-03-25T22:09:13;100535.00;;;12.90
18474;BMP180;30265;52.408;13.500;2023-03-25T22:19:35;100541.00;;;13.00
18474;BMP180;30265;52.408;13.500;2023-03-25T22:29:58;100527.00;;;13.10
18474;BMP180;30265;52.408;13.500;2023-03-25T22:40:20;100537.00;;;12.80
18474;BMP180;30265;52.408;13.500;2023-03-25T22:50:44;100523.00;;;13.20
18474;BMP180;30265;52.408;13.500;2023-03-25T23:01:20;100530.00;;;13.20
18474;BMP180;30265;52.408;13.500;2023-03-25T23:11:44;100519.00;;;13.20
18474;BMP180;30265;52.408;13.500;2023-03-25T23:22:07;100526.00;;;13.20
18474;BMP180;30265;52.408;13.500;2023-03-25T23:32:31;100538.00;;;13.30
18474;BMP180;30265;52.408;13.500;2023-03-25T23:42:53;100543.00;;;13.10
18474;BMP180;30265;52.408;13.500;2023-03-25T23:53:16;100553.00;;;13.10
